createdAt,value
2023-03-08T00:01:26.555Z,18.38
2023-03-08T00:03:55.385Z,17.45
2023-03-08T00:06:24.528Z,17.45
2023-03-08T00:08:55.333Z,17.65
2023-03-08T00:11:21.995Z,15.52
2023-03-08T00:13:48.661Z,17.42
2023-03-08T00:16:15.393Z,18.35
2023-03-08T00:18:42.887Z,16.60
2023-03-08T00:21:17.012Z,17.23
2023-03-08T00:23:44.628Z,16.98
2023-03-08T00:26:12.685Z,17.23
2023-03-08T00:28:39.837Z,17.45
2023-03-08T00:31:09.395Z,16.25
2023-03-08T00:33:36.530Z,17.08
2023-03-08T00:36:05.294Z,16.35
2023-03-08T00:38:34.796Z,16.40
2023-03-08T00:41:02.419Z,16.95
2023-03-08T00:43:31.316Z,17.60
2023-03-08T00:45:58.435Z,16.25
2023-03-08T00:48:25.285Z,18.33
2023-03-08T00:50:52.643Z,16.45
2023-03-08T00:53:19.747Z,15.48
2023-03-08T00:55:55.265Z,17.27
2023-03-08T00:58:24.533Z,16.13
2023-03-08T01:00:52.018Z,17.08
2023-03-08T01:03:19.513Z,17.13
2023-03-08T01:05:49.517Z,16.95
2023-03-08T01:08:17.163Z,15.10
2023-03-08T01:10:59.104Z,14.40
2023-03-08T01:13:36.155Z,14.75
2023-03-08T01:16:03.147Z,13.65
2023-03-08T01:18:30.713Z,14.55
2023-03-08T01:21:04.936Z,13.23
2023-03-08T01:23:32.599Z,15.25
2023-03-08T01:26:15.107Z,15.32
2023-03-08T01:28:42.764Z,15.60
2023-03-08T01:31:13.433Z,13.02
2023-03-08T01:33:42.097Z,13.52
2023-03-08T01:36:11.564Z,13.82
2023-03-08T01:38:38.625Z,13.10
2023-03-08T01:41:07.848Z,13.45
2023-03-08T01:43:37.077Z,14.52
2023-03-08T01:46:07.638Z,14.00
2023-03-08T01:48:43.849Z,14.88
2023-03-08T01:51:20.223Z,16.05
2023-03-08T01:53:47.501Z,16.98
2023-03-08T01:56:17.526Z,16.80
2023-03-08T01:58:47.254Z,15.60
2023-03-08T02:01:14.810Z,15.38
2023-03-08T02:03:42.079Z,16.33
2023-03-08T02:06:09.546Z,16.40
2023-03-08T02:08:36.533Z,13.93
2023-03-08T02:11:03.390Z,12.68
2023-03-08T02:13:31.167Z,15.52
2023-03-08T02:16:00.749Z,13.60
2023-03-08T02:18:28.211Z,13.85
2023-03-08T02:20:54.930Z,14.93
2023-03-08T02:23:24.156Z,14.15
2023-03-08T02:26:00.449Z,14.48
2023-03-08T02:28:28.556Z,13.27
2023-03-08T02:30:55.897Z,11.73
2023-03-08T02:33:23.100Z,11.10
2023-03-08T02:35:50.394Z,12.30
2023-03-08T02:38:18.999Z,11.07
2023-03-08T02:40:46.191Z,13.50
2023-03-08T02:43:13.489Z,13.43
2023-03-08T02:45:40.412Z,11.77
2023-03-08T02:48:08.865Z,11.20
2023-03-08T02:50:36.592Z,11.45
2023-03-08T02:53:04.379Z,12.57
2023-03-08T02:55:35.969Z,12.27
2023-03-08T02:58:07.447Z,10.40
2023-03-08T03:00:34.615Z,12.18
2023-03-08T03:03:01.864Z,10.80
2023-03-08T03:05:28.670Z,9.63
2023-03-08T03:07:58.590Z,10.75
2023-03-08T03:10:27.244Z,9.68
2023-03-08T03:12:54.333Z,9.38
2023-03-08T03:15:25.142Z,10.18
2023-03-08T03:17:56.723Z,9.20
2023-03-08T03:20:23.561Z,9.57
2023-03-08T03:22:50.258Z,11.95
2023-03-08T03:25:19.398Z,9.60
2023-03-08T03:27:47.657Z,10.23
2023-03-08T03:30:16.153Z,9.27
2023-03-08T03:32:43.889Z,9.98
2023-03-08T03:35:11.396Z,11.57
2023-03-08T03:37:38.292Z,11.00
2023-03-08T03:40:06.062Z,11.80
2023-03-08T03:42:32.897Z,12.05
2023-03-08T03:45:06.550Z,10.32
2023-03-08T03:47:33.986Z,8.27
2023-03-08T03:50:04.238Z,9.90
2023-03-08T03:52:39.641Z,10.18
2023-03-08T03:55:07.170Z,8.98
2023-03-08T03:57:35.292Z,9.07
2023-03-08T04:00:02.340Z,8.75
2023-03-08T04:02:29.347Z,9.05
2023-03-08T04:04:58.916Z,9.50
2023-03-08T04:07:29.281Z,11.20
2023-03-08T04:09:58.369Z,11.35
2023-03-08T04:12:25.544Z,11.13
2023-03-08T04:14:53.706Z,11.55
2023-03-08T04:17:21.400Z,12.23
2023-03-08T04:19:51.756Z,11.43
2023-03-08T04:22:19.759Z,9.05
2023-03-08T04:24:57.275Z,9.07
2023-03-08T04:27:35.955Z,7.75
2023-03-08T04:30:03.281Z,8.85
2023-03-08T04:32:34.873Z,8.63
2023-03-08T04:35:02.384Z,8.55
2023-03-08T04:37:31.344Z,8.95
2023-03-08T04:40:09.175Z,11.20
2023-03-08T04:42:41.208Z,10.63
2023-03-08T04:45:10.571Z,10.77
2023-03-08T04:47:37.392Z,11.27
2023-03-08T04:50:04.440Z,10.25
2023-03-08T04:52:32.519Z,12.05
2023-03-08T04:54:59.830Z,12.35
2023-03-08T04:57:27.589Z,13.23
2023-03-08T04:59:57.145Z,13.38
2023-03-08T05:02:23.961Z,13.45
2023-03-08T05:04:51.058Z,13.18
2023-03-08T05:07:18.087Z,13.70
2023-03-08T05:09:45.917Z,13.63
2023-03-08T05:12:13.536Z,12.50
2023-03-08T05:14:48.900Z,13.93
2023-03-08T05:17:15.594Z,12.95
2023-03-08T05:19:42.390Z,15.98
2023-03-08T05:22:10.538Z,12.38
2023-03-08T05:24:42.924Z,13.38
2023-03-08T05:27:12.189Z,13.70
2023-03-08T05:29:39.103Z,13.23
2023-03-08T05:32:06.617Z,15.98
2023-03-08T05:34:34.249Z,14.77
2023-03-08T05:37:03.131Z,15.80
2023-03-08T05:39:31.811Z,14.45
2023-03-08T05:42:32.295Z,12.57
2023-03-08T05:44:59.916Z,10.90
2023-03-08T05:47:30.679Z,11.27
2023-03-08T05:49:57.473Z,10.38
2023-03-08T05:52:24.161Z,11.52
2023-03-08T05:54:51.191Z,13.05
2023-03-08T05:57:19.936Z,12.45
2023-03-08T05:59:48.543Z,11.45
2023-03-08T06:02:18.548Z,11.48
2023-03-08T06:04:49.067Z,11.23
2023-03-08T06:07:19.173Z,11.27
2023-03-08T06:09:51.712Z,11.82
2023-03-08T06:12:18.440Z,12.98
2023-03-08T06:14:48.614Z,11.40
2023-03-08T06:17:18.227Z,11.45
2023-03-08T06:19:48.026Z,12.02
2023-03-08T06:22:18.615Z,12.32
2023-03-08T06:24:49.514Z,12.70
2023-03-08T06:27:20.209Z,11.80
2023-03-08T06:29:48.967Z,13.82
2023-03-08T06:32:16.160Z,10.77
2023-03-08T06:34:43.283Z,11.20
2023-03-08T06:37:11.134Z,11.13
2023-03-08T06:39:37.810Z,11.10
2023-03-08T06:42:06.051Z,10.88
2023-03-08T06:44:32.745Z,10.30
2023-03-08T06:46:59.441Z,8.82
2023-03-08T06:49:26.149Z,7.45
2023-03-08T06:51:53.501Z,8.48
2023-03-08T06:54:21.856Z,9.18
2023-03-08T06:56:48.762Z,8.40
2023-03-08T06:59:15.724Z,8.10
2023-03-08T07:01:42.430Z,8.95
2023-03-08T07:04:09.214Z,7.95
2023-03-08T07:06:36.030Z,7.38
2023-03-08T07:09:02.927Z,7.13
2023-03-08T07:11:31.308Z,7.32
2023-03-08T07:13:59.283Z,7.25
2023-03-08T07:16:25.947Z,7.75
2023-03-08T07:18:52.929Z,6.85
2023-03-08T07:21:19.607Z,7.72
2023-03-08T07:23:46.349Z,6.00
2023-03-08T07:26:13.063Z,4.85
2023-03-08T07:28:39.976Z,6.88
2023-03-08T07:31:09.547Z,6.85
2023-03-08T07:33:36.214Z,5.90
2023-03-08T07:36:03.441Z,5.78
2023-03-08T07:38:30.494Z,6.30
2023-03-08T07:40:57.583Z,7.45
2023-03-08T07:43:24.561Z,7.50
2023-03-08T07:46:01.305Z,7.68
2023-03-08T07:48:28.834Z,7.10
2023-03-08T07:50:55.781Z,7.35
2023-03-08T07:53:22.530Z,7.10
2023-03-08T07:55:49.183Z,6.80
2023-03-08T07:58:15.931Z,8.20
2023-03-08T08:00:42.644Z,8.23
2023-03-08T08:03:09.369Z,7.55
2023-03-08T08:05:36.569Z,7.63
2023-03-08T08:08:03.637Z,7.45
2023-03-08T08:10:30.319Z,6.80
2023-03-08T08:12:56.992Z,6.88
2023-03-08T08:15:25.623Z,7.22
2023-03-08T08:17:52.751Z,6.90
2023-03-08T08:20:19.609Z,7.72
2023-03-08T08:22:46.248Z,7.80
2023-03-08T08:25:13.101Z,7.28
2023-03-08T08:27:40.119Z,8.15
2023-03-08T08:30:07.627Z,7.90
2023-03-08T08:32:35.300Z,8.20
2023-03-08T08:35:02.146Z,7.90
2023-03-08T08:37:30.619Z,7.43
2023-03-08T08:39:57.368Z,7.63
2023-03-08T08:42:24.160Z,7.90
2023-03-08T08:44:52.960Z,6.55
2023-03-08T08:47:19.700Z,7.20
2023-03-08T08:49:46.389Z,6.07
2023-03-08T08:52:13.066Z,6.70
2023-03-08T08:54:40.086Z,6.90
2023-03-08T08:57:07.212Z,5.70
2023-03-08T08:59:34.142Z,5.77
2023-03-08T09:02:01.115Z,6.27
2023-03-08T09:04:27.902Z,5.90
2023-03-08T09:06:54.840Z,6.13
2023-03-08T09:09:21.481Z,6.43
2023-03-08T09:11:54.689Z,6.80
2023-03-08T09:14:22.859Z,6.13
2023-03-08T09:16:49.678Z,7.30
2023-03-08T09:19:16.446Z,7.45
2023-03-08T09:21:43.195Z,7.20
2023-03-08T09:24:12.043Z,7.57
2023-03-08T09:26:39.010Z,8.13
2023-03-08T09:29:07.235Z,7.85
2023-03-08T09:31:36.997Z,7.20
2023-03-08T09:34:09.219Z,7.50
2023-03-08T09:36:39.502Z,7.70
2023-03-08T09:39:08.798Z,8.18
2023-03-08T09:41:48.942Z,7.70
2023-03-08T09:44:43.913Z,12.10
2023-03-08T09:47:32.282Z,6.90
2023-03-08T09:50:13.007Z,7.53
2023-03-08T09:52:52.131Z,8.20
2023-03-08T09:55:30.369Z,8.10
2023-03-08T09:58:16.947Z,8.00
2023-03-08T10:00:44.804Z,6.97
2023-03-08T10:03:46.813Z,8.00
2023-03-08T10:06:33.769Z,7.07
2023-03-08T10:09:07.975Z,7.70
2023-03-08T10:11:58.078Z,7.77
2023-03-08T10:14:32.541Z,7.50
2023-03-08T10:17:11.702Z,8.03
2023-03-08T10:20:01.502Z,8.00
2023-03-08T10:22:30.473Z,7.10
2023-03-08T10:24:59.923Z,8.00
2023-03-08T10:27:29.066Z,6.73
2023-03-08T10:29:59.092Z,7.97
2023-03-08T10:32:27.414Z,8.30
2023-03-08T10:35:05.213Z,8.33
2023-03-08T10:37:33.676Z,7.60
2023-03-08T10:40:05.398Z,8.10
2023-03-08T10:42:33.489Z,8.00
2023-03-08T10:45:14.112Z,7.07
2023-03-08T10:47:40.890Z,6.97
2023-03-08T10:50:20.853Z,6.07
2023-03-08T10:52:49.378Z,6.17
2023-03-08T10:55:28.104Z,5.87
2023-03-08T10:58:00.832Z,6.10
2023-03-08T11:00:36.512Z,6.00
2023-03-08T11:03:18.228Z,6.10
2023-03-08T11:06:01.352Z,5.63
2023-03-08T11:08:50.734Z,6.87
2023-03-08T11:11:17.458Z,6.50
2023-03-08T11:13:47.023Z,7.50
2023-03-08T11:16:36.840Z,6.40
2023-03-08T11:19:25.215Z,7.20
2023-03-08T11:22:19.767Z,7.20
2023-03-08T11:24:52.230Z,6.67
2023-03-08T11:27:25.325Z,7.40
2023-03-08T11:30:20.042Z,6.50
2023-03-08T11:33:05.534Z,6.20
2023-03-08T11:36:02.436Z,6.20
2023-03-08T11:38:31.786Z,6.60
2023-03-08T11:41:19.436Z,6.37
2023-03-08T11:44:18.974Z,6.20
2023-03-08T11:46:56.236Z,7.03
2023-03-08T11:49:51.074Z,6.53
2023-03-08T11:52:17.718Z,7.20
2023-03-08T11:55:07.389Z,7.20
2023-03-08T11:57:42.854Z,7.10
2023-03-08T12:00:50.402Z,7.27
2023-03-08T12:03:20.349Z,6.40
2023-03-08T12:05:57.664Z,7.57
2023-03-08T12:08:31.611Z,7.63
2023-03-08T12:11:10.176Z,6.93
2023-03-08T12:13:38.298Z,7.57
2023-03-08T12:16:30.723Z,7.10
2023-03-08T12:19:21.467Z,7.00
2023-03-08T12:22:04.618Z,7.80
2023-03-08T12:24:31.236Z,7.00
2023-03-08T12:27:24.337Z,6.93
2023-03-08T12:30:19.938Z,6.50
2023-03-08T12:32:48.098Z,7.40
2023-03-08T12:35:28.175Z,6.70
2023-03-08T12:38:01.203Z,7.87
2023-03-08T12:40:49.546Z,7.67
2023-03-08T12:43:19.249Z,7.47
2023-03-08T12:45:48.581Z,7.93
2023-03-08T12:48:20.905Z,7.60
2023-03-08T12:50:53.440Z,8.20
2023-03-08T12:53:37.424Z,7.73
2023-03-08T12:56:25.140Z,7.90
2023-03-08T12:58:56.295Z,8.20
2023-03-08T13:01:31.173Z,8.30
2023-03-08T13:03:58.369Z,10.03
2023-03-08T13:06:27.827Z,8.10
2023-03-08T13:09:24.569Z,8.47
2023-03-08T13:12:13.685Z,8.77
2023-03-08T13:15:03.712Z,9.10
2023-03-08T13:17:39.346Z,8.73
2023-03-08T13:20:20.904Z,8.50
2023-03-08T13:23:08.255Z,8.23
2023-03-08T13:25:35.015Z,8.53
2023-03-08T13:28:09.077Z,8.70
2023-03-08T13:30:42.224Z,8.53
2023-03-08T13:33:14.170Z,8.13
2023-03-08T13:35:40.863Z,4.27
2023-03-08T13:38:07.693Z,8.03
2023-03-08T13:40:35.596Z,8.07
2023-03-08T13:43:10.671Z,7.67
2023-03-08T13:45:37.576Z,7.73
2023-03-08T13:48:08.719Z,8.93
2023-03-08T13:50:38.628Z,9.20
2023-03-08T13:53:14.627Z,8.70
2023-03-08T13:55:46.452Z,8.80
2023-03-08T13:58:35.208Z,9.90
2023-03-08T14:01:03.970Z,9.10
2023-03-08T14:03:32.839Z,8.87
2023-03-08T14:05:59.808Z,10.43
2023-03-08T14:08:27.738Z,13.63
2023-03-08T14:10:57.702Z,9.60
2023-03-08T14:13:34.214Z,9.40
2023-03-08T14:16:04.229Z,9.30
2023-03-08T14:18:37.508Z,8.80
2023-03-08T14:21:13.611Z,9.40
2023-03-08T14:23:45.511Z,9.73
2023-03-08T14:26:24.332Z,9.50
2023-03-08T14:29:03.884Z,8.33
2023-03-08T14:31:30.959Z,8.80
2023-03-08T14:34:03.714Z,8.23
2023-03-08T14:36:32.958Z,8.40
2023-03-08T14:39:00.179Z,7.87
2023-03-08T14:41:36.250Z,8.40
2023-03-08T14:44:04.652Z,8.97
2023-03-08T14:46:32.469Z,9.33
2023-03-08T14:49:02.223Z,8.20
2023-03-08T14:51:42.330Z,7.50
2023-03-08T14:54:35.909Z,9.20
2023-03-08T14:57:24.503Z,8.33
2023-03-08T14:59:52.300Z,8.60
2023-03-08T15:02:19.468Z,8.80
2023-03-08T15:04:46.577Z,7.60
2023-03-08T15:07:22.267Z,9.07
2023-03-08T15:09:50.336Z,8.20
2023-03-08T15:12:18.250Z,8.60
2023-03-08T15:14:45.901Z,9.63
2023-03-08T15:17:12.649Z,8.40
2023-03-08T15:19:39.326Z,9.40
2023-03-08T15:22:06.607Z,8.77
2023-03-08T15:24:33.968Z,9.03
2023-03-08T15:27:00.614Z,8.60
2023-03-08T15:29:34.414Z,9.13
2023-03-08T15:32:01.066Z,8.70
2023-03-08T15:34:28.587Z,9.03
2023-03-08T15:36:55.636Z,9.77
2023-03-08T15:39:22.680Z,9.77
2023-03-08T15:41:49.509Z,9.73
2023-03-08T15:44:16.258Z,10.97
2023-03-08T15:46:43.147Z,9.80
2023-03-08T15:49:10.824Z,11.00
2023-03-08T15:51:37.744Z,10.93
2023-03-08T15:54:05.510Z,10.07
2023-03-08T15:56:32.277Z,11.60
2023-03-08T15:58:59.083Z,10.93
2023-03-08T16:01:27.689Z,11.30
2023-03-08T16:03:56.689Z,10.10
2023-03-08T16:06:23.983Z,12.53
2023-03-08T16:08:50.887Z,12.00
2023-03-08T16:11:22.083Z,11.43
2023-03-08T16:13:52.743Z,11.03
2023-03-08T16:16:20.596Z,11.87
2023-03-08T16:18:48.604Z,12.23
2023-03-08T16:21:15.571Z,11.97
2023-03-08T16:23:42.735Z,12.17
2023-03-08T16:26:17.027Z,11.10
2023-03-08T16:28:46.811Z,11.97
2023-03-08T16:31:14.546Z,11.70
2023-03-08T16:33:41.402Z,11.67
2023-03-08T16:36:08.179Z,11.80
2023-03-08T16:38:34.867Z,13.43
2023-03-08T16:41:12.346Z,12.63
2023-03-08T16:43:46.883Z,11.37
2023-03-08T16:46:20.077Z,12.60
2023-03-08T16:48:54.189Z,13.57
2023-03-08T16:51:23.269Z,14.10
2023-03-08T16:53:50.266Z,12.53
2023-03-08T16:56:21.865Z,13.77
2023-03-08T16:58:48.761Z,12.80
2023-03-08T17:01:17.812Z,14.67
2023-03-08T17:03:44.980Z,15.70
2023-03-08T17:06:15.174Z,16.10
2023-03-08T17:08:42.011Z,14.17
2023-03-08T17:11:29.755Z,13.87
2023-03-08T17:14:02.135Z,14.30
2023-03-08T17:16:31.029Z,15.87
2023-03-08T17:19:02.127Z,13.70
2023-03-08T17:21:29.691Z,14.13
2023-03-08T17:23:57.293Z,14.40
2023-03-08T17:26:24.113Z,16.17
2023-03-08T17:28:53.386Z,13.93
2023-03-08T17:31:22.080Z,14.67
2023-03-08T17:33:49.339Z,14.60
2023-03-08T17:36:16.715Z,17.07
2023-03-08T17:38:43.596Z,17.83
2023-03-08T17:41:13.905Z,21.20
2023-03-08T17:43:41.467Z,19.40
2023-03-08T17:46:13.062Z,20.03
2023-03-08T17:48:39.897Z,19.03
2023-03-08T17:51:09.360Z,19.50
2023-03-08T17:53:37.589Z,25.50
2023-03-08T17:56:13.792Z,22.17
2023-03-08T17:58:41.080Z,18.20
2023-03-08T18:01:13.550Z,15.90
2023-03-08T18:03:40.693Z,19.27
2023-03-08T18:06:08.654Z,19.77
2023-03-08T18:08:36.091Z,19.90
2023-03-08T18:11:03.317Z,19.20
2023-03-08T18:13:30.004Z,16.83
2023-03-08T18:15:56.666Z,16.53
2023-03-08T18:18:23.687Z,17.23
2023-03-08T18:20:50.433Z,18.43
2023-03-08T18:23:17.049Z,17.00
2023-03-08T18:25:43.793Z,15.70
2023-03-08T18:28:11.063Z,16.17
2023-03-08T18:30:38.611Z,14.50
2023-03-08T18:33:05.393Z,15.67
2023-03-08T18:35:32.541Z,15.97
2023-03-08T18:38:00.384Z,15.13
2023-03-08T18:40:29.325Z,17.97
2023-03-08T18:42:56.594Z,19.13
2023-03-08T18:45:23.477Z,18.67
2023-03-08T18:47:51.278Z,16.03
2023-03-08T18:50:18.799Z,15.80
2023-03-08T18:52:45.684Z,17.77
2023-03-08T18:55:13.152Z,16.97
2023-03-08T18:57:39.910Z,15.50
2023-03-08T19:00:10.415Z,17.60
2023-03-08T19:02:38.197Z,17.90
2023-03-08T19:05:05.152Z,17.37
2023-03-08T19:07:31.788Z,17.20
2023-03-08T19:10:00.231Z,17.00
2023-03-08T19:12:27.788Z,15.73
2023-03-08T19:14:54.498Z,17.70
2023-03-08T19:17:21.752Z,19.47
2023-03-08T19:19:48.464Z,17.47
2023-03-08T19:22:15.425Z,18.10
2023-03-08T19:24:42.121Z,18.70
2023-03-08T19:27:09.041Z,18.30
2023-03-08T19:29:35.837Z,18.53
2023-03-08T19:32:05.884Z,20.30
2023-03-08T19:34:38.052Z,19.40
2023-03-08T19:37:06.170Z,19.30
2023-03-08T19:39:36.267Z,19.23
2023-03-08T19:42:07.232Z,19.70
2023-03-08T19:44:35.354Z,19.30
2023-03-08T19:47:03.893Z,21.50
2023-03-08T19:49:33.990Z,21.37
2023-03-08T19:52:03.058Z,21.63
2023-03-08T19:54:30.474Z,19.90
2023-03-08T19:56:58.384Z,23.00
2023-03-08T19:59:25.571Z,22.60
2023-03-08T20:01:54.028Z,21.67
2023-03-08T20:04:21.869Z,21.83
2023-03-08T20:06:49.687Z,22.03
2023-03-08T20:09:21.240Z,22.37
2023-03-08T20:11:56.496Z,21.20
2023-03-08T20:14:27.016Z,23.83
2023-03-08T20:16:53.902Z,24.97
2023-03-08T20:19:20.679Z,23.70
2023-03-08T20:21:47.354Z,26.60
2023-03-08T20:24:14.553Z,23.10
2023-03-08T20:26:41.934Z,25.00
2023-03-08T20:29:08.959Z,23.37
2023-03-08T20:31:35.662Z,26.47
2023-03-08T20:34:02.384Z,26.03
2023-03-08T20:36:29.561Z,27.73
2023-03-08T20:38:58.095Z,24.47
2023-03-08T20:41:25.387Z,23.97
2023-03-08T20:43:55.448Z,25.60
2023-03-08T20:46:26.085Z,22.67
2023-03-08T20:48:54.310Z,25.83
2023-03-08T20:51:22.383Z,24.00
2023-03-08T20:53:51.283Z,24.53
2023-03-08T20:56:20.551Z,24.47
2023-03-08T20:58:47.653Z,22.37
2023-03-08T21:01:20.795Z,25.23
2023-03-08T21:03:48.594Z,24.93
2023-03-08T21:06:21.611Z,23.50
2023-03-08T21:08:49.047Z,25.57
2023-03-08T21:11:16.689Z,24.37
2023-03-08T21:13:43.544Z,25.50
2023-03-08T21:16:13.761Z,24.10
2023-03-08T21:18:45.560Z,23.70
2023-03-08T21:21:42.662Z,25.23
2023-03-08T21:24:15.624Z,24.43
2023-03-08T21:26:42.998Z,24.43
2023-03-08T21:29:13.503Z,21.67
2023-03-08T21:31:42.768Z,29.17
2023-03-08T21:34:12.157Z,31.97
2023-03-08T21:36:39.686Z,31.17
2023-03-08T21:39:08.190Z,30.03
2023-03-08T21:41:37.858Z,27.97
2023-03-08T21:44:09.196Z,27.20
2023-03-08T21:46:37.073Z,25.33
2023-03-08T21:49:04.048Z,27.57
2023-03-08T21:51:31.926Z,25.97
2023-03-08T21:53:58.773Z,27.33
2023-03-08T21:56:25.485Z,25.00
2023-03-08T21:58:52.148Z,21.93
2023-03-08T22:01:25.027Z,21.90
2023-03-08T22:03:52.545Z,21.17
2023-03-08T22:06:19.341Z,22.57
2023-03-08T22:08:46.452Z,20.60
2023-03-08T22:11:14.489Z,20.97
2023-03-08T22:13:41.853Z,21.83
2023-03-08T22:16:08.764Z,23.90
2023-03-08T22:18:35.447Z,22.97
2023-03-08T22:21:02.151Z,23.50
2023-03-08T22:23:28.896Z,24.67
2023-03-08T22:25:55.567Z,24.33
2023-03-08T22:28:22.202Z,24.77
2023-03-08T22:30:48.888Z,22.27
2023-03-08T22:33:15.792Z,26.17
2023-03-08T22:35:47.005Z,22.77
2023-03-08T22:38:14.267Z,24.20
2023-03-08T22:40:42.354Z,26.20
2023-03-08T22:43:09.601Z,24.70
2023-03-08T22:45:36.394Z,27.47
2023-03-08T22:48:04.469Z,23.60
2023-03-08T22:50:31.143Z,28.20
2023-03-08T22:52:57.772Z,25.87
2023-03-08T22:55:24.503Z,29.37
2023-03-08T22:57:51.121Z,25.30
2023-03-08T23:00:17.901Z,26.03
2023-03-08T23:02:46.274Z,25.20
2023-03-08T23:05:15.141Z,24.83
2023-03-08T23:07:42.142Z,24.37
2023-03-08T23:10:10.542Z,24.57
2023-03-08T23:12:37.462Z,41.67
2023-03-08T23:15:05.282Z,34.50
2023-03-08T23:17:32.007Z,30.30
2023-03-08T23:19:59.011Z,21.67
2023-03-08T23:22:25.727Z,25.57
2023-03-08T23:24:52.478Z,22.03
2023-03-08T23:27:19.541Z,21.67
2023-03-08T23:29:46.171Z,21.37
2023-03-08T23:32:13.093Z,26.97
2023-03-08T23:34:39.795Z,29.07
2023-03-08T23:37:06.539Z,20.60
2023-03-08T23:39:33.961Z,22.03
2023-03-08T23:42:00.806Z,19.00
2023-03-08T23:44:27.861Z,21.90
2023-03-08T23:46:54.494Z,23.13
2023-03-08T23:49:21.234Z,22.80
2023-03-08T23:51:47.902Z,22.03
2023-03-08T23:54:15.259Z,23.70
2023-03-08T23:56:42.858Z,18.33
2023-03-08T23:59:19.163Z,16.33
